sensor_id;sensor_type;location;lat;lon;timestamp;pressure;altitude;pressure_sealevel;temperature;humidity
85764;BME280;76207;39.772;2.706;2024-02-26T00:01:40;100038.76;;;18.05;44.22
85764;BME280;76207;39.772;2.706;2024-02-26T00:04:06;100039.80;;;18.05;44.30
85764;BME280;76207;39.772;2.706;2024-02-26T00:06:31;100045.34;;;18.05;44.26
85764;BME280;76207;39.772;2.706;2024-02-26T00:08:58;100042.73;;;18.05;44.35
85764;BME280;76207;39.772;2.706;2024-02-26T00:11:23;100038.59;;;18.03;44.49
85764;BME280;76207;39.772;2.706;2024-02-26T00:13:49;100028.38;;;18.02;44.52
85764;BME280;76207;39.772;2.706;2024-02-26T00:16:14;100032.15;;;18.01;44.56
85764;BME280;76207;39.772;2.706;2024-02-26T00:18:40;100021.23;;;18.00;44.37
85764;BME280;76207;39.772;2.706;2024-02-26T00:21:06;100031.98;;;18.00;44.27
85764;BME280;76207;39.772;2.706;2024-02-26T00:23:31;100028.02;;;18.02;44.31
85764;BME280;76207;39.772;2.706;2024-02-26T00:25:57;100027.50;;;18.03;44.40
85764;BME280;76207;39.772;2.706;2024-02-26T00:28:22;100030.61;;;18.02;44.54
85764;BME280;76207;39.772;2.706;2024-02-26T00:30:50;100021.96;;;18.02;44.38
85764;BME280;76207;39.772;2.706;2024-02-26T00:33:17;100024.39;;;18.04;44.39
85764;BME280;76207;39.772;2.706;2024-02-26T00:35:42;100023.35;;;18.04;44.46
85764;BME280;76207;39.772;2.706;2024-02-26T00:38:08;100019.73;;;18.06;44.47
85764;BME280;76207;39.772;2.706;2024-02-26T00:40:33;100018.00;;;18.06;44.42
85764;BME280;76207;39.772;2.706;2024-02-26T00:42:59;100007.81;;;18.07;44.38
85764;BME280;76207;39.772;2.706;2024-02-26T00:45:25;100000.02;;;18.09;44.09
85764;BME280;76207;39.772;2.706;2024-02-26T00:47:50;100002.48;;;18.12;44.02
85764;BME280;76207;39.772;2.706;2024-02-26T00:50:16;99997.83;;;18.14;43.50
85764;BME280;76207;39.772;2.706;2024-02-26T00:52:42;99993.52;;;18.16;43.56
85764;BME280;76207;39.772;2.706;2024-02-26T00:55:07;99996.11;;;18.17;43.39
85764;BME280;76207;39.772;2.706;2024-02-26T00:57:33;99997.33;;;18.17;43.54
85764;BME280;76207;39.772;2.706;2024-02-26T00:59:59;100000.96;;;18.17;43.24
85764;BME280;76207;39.772;2.706;2024-02-26T01:02:26;100011.73;;;18.20;43.36
85764;BME280;76207;39.772;2.706;2024-02-26T01:04:51;99998.73;;;18.20;43.74
85764;BME280;76207;39.772;2.706;2024-02-26T01:07:17;100003.45;;;18.24;43.89
85764;BME280;76207;39.772;2.706;2024-02-26T01:09:42;100014.02;;;18.25;44.08
85764;BME280;76207;39.772;2.706;2024-02-26T01:12:08;100005.36;;;18.24;44.09
85764;BME280;76207;39.772;2.706;2024-02-26T01:14:34;99999.98;;;18.25;44.33
85764;BME280;76207;39.772;2.706;2024-02-26T01:17:00;100006.02;;;18.22;44.68
85764;BME280;76207;39.772;2.706;2024-02-26T01:19:25;99990.60;;;18.20;44.57
85764;BME280;76207;39.772;2.706;2024-02-26T01:21:51;99991.10;;;18.18;44.56
85764;BME280;76207;39.772;2.706;2024-02-26T01:24:16;99985.39;;;18.16;44.56
85764;BME280;76207;39.772;2.706;2024-02-26T01:26:42;99987.63;;;18.16;44.39
85764;BME280;76207;39.772;2.706;2024-02-26T01:29:08;99990.05;;;18.16;44.33
85764;BME280;76207;39.772;2.706;2024-02-26T01:31:33;99981.21;;;18.15;44.44
85764;BME280;76207;39.772;2.706;2024-02-26T01:33:59;99980.16;;;18.14;44.57
85764;BME280;76207;39.772;2.706;2024-02-26T01:36:24;99974.09;;;18.13;44.63
85764;BME280;76207;39.772;2.706;2024-02-26T01:38:50;99975.47;;;18.13;44.60
85764;BME280;76207;39.772;2.706;2024-02-26T01:41:16;99966.64;;;18.13;44.71
85764;BME280;76207;39.772;2.706;2024-02-26T01:43:42;99972.36;;;18.12;44.64
85764;BME280;76207;39.772;2.706;2024-02-26T01:46:11;99969.61;;;18.14;44.65
85764;BME280;76207;39.772;2.706;2024-02-26T01:48:43;99966.48;;;18.14;44.87
85764;BME280;76207;39.772;2.706;2024-02-26T01:51:10;99963.52;;;18.11;45.08
85764;BME280;76207;39.772;2.706;2024-02-26T01:53:36;99965.92;;;18.08;45.17
85764;BME280;76207;39.772;2.706;2024-02-26T01:56:02;99965.40;;;18.08;45.15
85764;BME280;76207;39.772;2.706;2024-02-26T01:58:28;99961.25;;;18.09;45.28
85764;BME280;76207;39.772;2.706;2024-02-26T02:00:56;99960.55;;;18.08;45.41
85764;BME280;76207;39.772;2.706;2024-02-26T02:03:25;99963.84;;;18.07;45.55
85764;BME280;76207;39.772;2.706;2024-02-26T02:05:51;99970.94;;;18.07;45.62
85764;BME280;76207;39.772;2.706;2024-02-26T02:08:16;99968.16;;;18.06;45.77
85764;BME280;76207;39.772;2.706;2024-02-26T02:10:42;99970.04;;;18.04;45.88
85764;BME280;76207;39.772;2.706;2024-02-26T02:13:08;99966.56;;;18.02;45.95
85764;BME280;76207;39.772;2.706;2024-02-26T02:15:33;99963.95;;;18.00;46.09
85764;BME280;76207;39.772;2.706;2024-02-26T02:17:59;99955.60;;;17.96;46.25
85764;BME280;76207;39.772;2.706;2024-02-26T02:20:32;99952.11;;;17.93;46.23
85764;BME280;76207;39.772;2.706;2024-02-26T02:22:58;99950.88;;;17.91;46.46
85764;BME280;76207;39.772;2.706;2024-02-26T02:25:23;99951.58;;;17.90;46.37
85764;BME280;76207;39.772;2.706;2024-02-26T02:27:49;99944.32;;;17.92;46.55
85764;BME280;76207;39.772;2.706;2024-02-26T02:30:16;99941.36;;;17.91;46.61
85764;BME280;76207;39.772;2.706;2024-02-26T02:32:42;99945.86;;;17.90;46.64
85764;BME280;76207;39.772;2.706;2024-02-26T02:35:09;99961.77;;;17.90;46.71
85764;BME280;76207;39.772;2.706;2024-02-26T02:37:35;99954.48;;;17.88;46.88
85764;BME280;76207;39.772;2.706;2024-02-26T02:40:00;99959.16;;;17.87;46.82
85764;BME280;76207;39.772;2.706;2024-02-26T02:42:26;99963.63;;;17.85;47.01
85764;BME280;76207;39.772;2.706;2024-02-26T02:44:52;99967.09;;;17.83;47.16
85764;BME280;76207;39.772;2.706;2024-02-26T02:47:17;99955.64;;;17.81;47.34
85764;BME280;76207;39.772;2.706;2024-02-26T02:49:43;99965.66;;;17.80;47.50
85764;BME280;76207;39.772;2.706;2024-02-26T02:52:08;99962.20;;;17.79;47.68
85764;BME280;76207;39.772;2.706;2024-02-26T02:54:34;99960.09;;;17.77;47.91
85764;BME280;76207;39.772;2.706;2024-02-26T02:57:00;99968.04;;;17.75;48.22
85764;BME280;76207;39.772;2.706;2024-02-26T02:59:26;99953.97;;;17.73;48.40
85764;BME280;76207;39.772;2.706;2024-02-26T03:01:52;99952.04;;;17.70;48.58
85764;BME280;76207;39.772;2.706;2024-02-26T03:04:18;99953.73;;;17.67;48.65
85764;BME280;76207;39.772;2.706;2024-02-26T03:06:43;99945.09;;;17.66;48.70
85764;BME280;76207;39.772;2.706;2024-02-26T03:09:09;99945.73;;;17.64;48.67
85764;BME280;76207;39.772;2.706;2024-02-26T03:11:34;99933.14;;;17.66;48.74
85764;BME280;76207;39.772;2.706;2024-02-26T03:14:00;99927.93;;;17.64;48.73
85764;BME280;76207;39.772;2.706;2024-02-26T03:16:25;99927.05;;;17.61;48.79
85764;BME280;76207;39.772;2.706;2024-02-26T03:18:51;99920.80;;;17.59;48.77
85764;BME280;76207;39.772;2.706;2024-02-26T03:21:17;99925.46;;;17.58;48.66
85764;BME280;76207;39.772;2.706;2024-02-26T03:23:46;99929.27;;;17.57;48.74
85764;BME280;76207;39.772;2.706;2024-02-26T03:26:12;99930.98;;;17.57;48.80
85764;BME280;76207;39.772;2.706;2024-02-26T03:28:40;99924.95;;;17.58;48.74
85764;BME280;76207;39.772;2.706;2024-02-26T03:31:06;99926.14;;;17.56;48.78
85764;BME280;76207;39.772;2.706;2024-02-26T03:33:31;99924.56;;;17.55;48.86
85764;BME280;76207;39.772;2.706;2024-02-26T03:35:56;99922.48;;;17.55;48.90
85764;BME280;76207;39.772;2.706;2024-02-26T03:38:22;99914.88;;;17.55;48.74
85764;BME280;76207;39.772;2.706;2024-02-26T03:40:48;99923.55;;;17.57;48.63
85764;BME280;76207;39.772;2.706;2024-02-26T03:43:13;99915.44;;;17.58;48.62
85764;BME280;76207;39.772;2.706;2024-02-26T03:45:39;99901.59;;;17.57;48.50
85764;BME280;76207;39.772;2.706;2024-02-26T03:48:05;99897.42;;;17.57;48.50
85764;BME280;76207;39.772;2.706;2024-02-26T03:50:31;99891.04;;;17.57;48.48
85764;BME280;76207;39.772;2.706;2024-02-26T03:52:57;99892.41;;;17.56;48.44
85764;BME280;76207;39.772;2.706;2024-02-26T03:55:23;99893.77;;;17.56;48.43
85764;BME280;76207;39.772;2.706;2024-02-26T03:57:53;99890.66;;;17.55;48.34
85764;BME280;76207;39.772;2.706;2024-02-26T04:00:19;99886.31;;;17.53;48.56
85764;BME280;76207;39.772;2.706;2024-02-26T04:02:46;99881.29;;;17.50;48.42
85764;BME280;76207;39.772;2.706;2024-02-26T04:05:12;99875.40;;;17.50;48.48
85764;BME280;76207;39.772;2.706;2024-02-26T04:07:39;99867.41;;;17.47;48.53
85764;BME280;76207;39.772;2.706;2024-02-26T04:10:09;99861.35;;;17.45;48.54
85764;BME280;76207;39.772;2.706;2024-02-26T04:12:35;99858.73;;;17.42;48.62
85764;BME280;76207;39.772;2.706;2024-02-26T04:15:00;99844.86;;;17.40;48.63
85764;BME280;76207;39.772;2.706;2024-02-26T04:17:25;99845.55;;;17.39;48.84
85764;BME280;76207;39.772;2.706;2024-02-26T04:19:51;99844.50;;;17.37;48.92
85764;BME280;76207;39.772;2.706;2024-02-26T04:22:17;99845.33;;;17.35;49.08
85764;BME280;76207;39.772;2.706;2024-02-26T04:24:42;99849.48;;;17.33;49.27
85764;BME280;76207;39.772;2.706;2024-02-26T04:27:08;99864.84;;;17.30;49.38
85764;BME280;76207;39.772;2.706;2024-02-26T04:29:33;99875.02;;;17.29;49.41
85764;BME280;76207;39.772;2.706;2024-02-26T04:31:59;99882.08;;;17.27;49.59
85764;BME280;76207;39.772;2.706;2024-02-26T04:34:24;99879.29;;;17.25;49.79
85764;BME280;76207;39.772;2.706;2024-02-26T04:36:50;99879.27;;;17.23;49.99
85764;BME280;76207;39.772;2.706;2024-02-26T04:39:16;99883.41;;;17.22;50.12
85764;BME280;76207;39.772;2.706;2024-02-26T04:41:42;99884.27;;;17.21;50.22
85764;BME280;76207;39.772;2.706;2024-02-26T04:44:07;99887.73;;;17.20;50.35
85764;BME280;76207;39.772;2.706;2024-02-26T04:46:32;99887.88;;;17.20;50.52
85764;BME280;76207;39.772;2.706;2024-02-26T04:48:58;99879.05;;;17.19;50.64
85764;BME280;76207;39.772;2.706;2024-02-26T04:51:23;99879.23;;;17.20;50.86
85764;BME280;76207;39.772;2.706;2024-02-26T04:53:49;99873.52;;;17.19;50.95
85764;BME280;76207;39.772;2.706;2024-02-26T04:56:14;99879.05;;;17.18;50.94
85764;BME280;76207;39.772;2.706;2024-02-26T04:58:40;99887.33;;;17.17;51.22
85764;BME280;76207;39.772;2.706;2024-02-26T05:01:05;99887.65;;;17.15;51.38
85764;BME280;76207;39.772;2.706;2024-02-26T05:03:31;99890.07;;;17.15;51.46
85764;BME280;76207;39.772;2.706;2024-02-26T05:05:56;99894.39;;;17.14;51.56
85764;BME280;76207;39.772;2.706;2024-02-26T05:08:23;99905.61;;;17.13;51.84
85764;BME280;76207;39.772;2.706;2024-02-26T05:10:49;99891.59;;;17.11;51.99
85764;BME280;76207;39.772;2.706;2024-02-26T05:13:14;99887.95;;;17.10;52.12
85764;BME280;76207;39.772;2.706;2024-02-26T05:15:41;99885.69;;;17.08;52.12
85764;BME280;76207;39.772;2.706;2024-02-26T05:18:07;99878.23;;;17.07;52.39
85764;BME280;76207;39.772;2.706;2024-02-26T05:20:33;99875.95;;;17.04;52.56
85764;BME280;76207;39.772;2.706;2024-02-26T05:23:00;99871.59;;;17.00;52.78
85764;BME280;76207;39.772;2.706;2024-02-26T05:25:26;99868.97;;;16.98;52.92
85764;BME280;76207;39.772;2.706;2024-02-26T05:27:51;99873.09;;;16.96;52.87
85764;BME280;76207;39.772;2.706;2024-02-26T05:30:17;99868.23;;;16.93;52.96
85764;BME280;76207;39.772;2.706;2024-02-26T05:32:42;99878.42;;;16.92;52.89
85764;BME280;76207;39.772;2.706;2024-02-26T05:35:08;99883.27;;;16.92;52.86
85764;BME280;76207;39.772;2.706;2024-02-26T05:37:34;99888.96;;;16.92;53.06
85764;BME280;76207;39.772;2.706;2024-02-26T05:39:59;99893.76;;;16.90;53.22
85764;BME280;76207;39.772;2.706;2024-02-26T05:42:25;99887.01;;;16.88;53.45
85764;BME280;76207;39.772;2.706;2024-02-26T05:44:50;99890.42;;;16.85;53.67
85764;BME280;76207;39.772;2.706;2024-02-26T05:47:16;99887.98;;;16.83;53.75
85764;BME280;76207;39.772;2.706;2024-02-26T05:49:42;99897.80;;;16.82;53.91
85764;BME280;76207;39.772;2.706;2024-02-26T05:52:08;99900.89;;;16.79;54.01
85764;BME280;76207;39.772;2.706;2024-02-26T05:54:34;99897.58;;;16.77;54.17
85764;BME280;76207;39.772;2.706;2024-02-26T05:56:59;99898.58;;;16.74;54.11
85764;BME280;76207;39.772;2.706;2024-02-26T05:59:25;99903.52;;;16.71;54.46
85764;BME280;76207;39.772;2.706;2024-02-26T06:01:50;99901.91;;;16.68;54.69
85764;BME280;76207;39.772;2.706;2024-02-26T06:04:16;99910.50;;;16.65;54.63
85764;BME280;76207;39.772;2.706;2024-02-26T06:06:44;99912.73;;;16.62;54.82
85764;BME280;76207;39.772;2.706;2024-02-26T06:09:11;99918.39;;;16.60;54.98
85764;BME280;76207;39.772;2.706;2024-02-26T06:11:37;99922.88;;;16.58;54.97
85764;BME280;76207;39.772;2.706;2024-02-26T06:14:02;99934.59;;;16.58;55.02
85764;BME280;76207;39.772;2.706;2024-02-26T06:16:28;99944.41;;;16.57;55.26
85764;BME280;76207;39.772;2.706;2024-02-26T06:18:53;99955.47;;;16.57;55.05
85764;BME280;76207;39.772;2.706;2024-02-26T06:21:19;99950.28;;;16.56;55.13
85764;BME280;76207;39.772;2.706;2024-02-26T06:23:44;99940.61;;;16.55;55.28
85764;BME280;76207;39.772;2.706;2024-02-26T06:26:10;99939.58;;;16.55;55.21
85764;BME280;76207;39.772;2.706;2024-02-26T06:28:35;99950.58;;;16.53;55.25
85764;BME280;76207;39.772;2.706;2024-02-26T06:31:01;99949.36;;;16.52;55.65
85764;BME280;76207;39.772;2.706;2024-02-26T06:33:27;99953.14;;;16.51;55.56
85764;BME280;76207;39.772;2.706;2024-02-26T06:35:53;99947.10;;;16.50;55.62
85764;BME280;76207;39.772;2.706;2024-02-26T06:38:18;99940.86;;;16.50;55.47
85764;BME280;76207;39.772;2.706;2024-02-26T06:40:44;99940.52;;;16.49;55.55
85764;BME280;76207;39.772;2.706;2024-02-26T06:43:10;99939.64;;;16.49;55.55
85764;BME280;76207;39.772;2.706;2024-02-26T06:45:35;99946.02;;;16.48;55.69
85764;BME280;76207;39.772;2.706;2024-02-26T06:48:01;99948.27;;;16.48;55.72
85764;BME280;76207;39.772;2.706;2024-02-26T06:50:28;99945.32;;;16.47;55.92
85764;BME280;76207;39.772;2.706;2024-02-26T06:52:53;99945.67;;;16.47;55.86
85764;BME280;76207;39.772;2.706;2024-02-26T06:55:19;99942.91;;;16.48;55.85
85764;BME280;76207;39.772;2.706;2024-02-26T06:57:44;99960.53;;;16.48;55.79
85764;BME280;76207;39.772;2.706;2024-02-26T07:00:11;99947.26;;;16.49;55.99
85764;BME280;76207;39.772;2.706;2024-02-26T07:02:43;99957.98;;;16.50;56.02
85764;BME280;76207;39.772;2.706;2024-02-26T07:05:09;99954.70;;;16.51;55.92
85764;BME280;76207;39.772;2.706;2024-02-26T07:07:35;99944.70;;;16.52;56.04
85764;BME280;76207;39.772;2.706;2024-02-26T07:10:01;99940.23;;;16.53;56.15
85764;BME280;76207;39.772;2.706;2024-02-26T07:12:30;99951.69;;;16.57;56.25
85764;BME280;76207;39.772;2.706;2024-02-26T07:14:55;99968.52;;;16.62;56.12
85764;BME280;76207;39.772;2.706;2024-02-26T07:17:21;99970.26;;;16.64;56.52
85764;BME280;76207;39.772;2.706;2024-02-26T07:19:46;99980.11;;;16.66;56.67
85764;BME280;76207;39.772;2.706;2024-02-26T07:22:12;99983.44;;;16.67;56.96
85764;BME280;76207;39.772;2.706;2024-02-26T07:24:37;99988.63;;;16.68;58.03
85764;BME280;76207;39.772;2.706;2024-02-26T07:27:03;99987.06;;;16.68;59.50
85764;BME280;76207;39.772;2.706;2024-02-26T07:29:29;99982.72;;;16.66;59.73
85764;BME280;76207;39.772;2.706;2024-02-26T07:31:55;99981.27;;;16.61;60.56
85764;BME280;76207;39.772;2.706;2024-02-26T07:34:20;99983.62;;;16.57;60.81
85764;BME280;76207;39.772;2.706;2024-02-26T07:36:53;99987.93;;;16.57;61.24
85764;BME280;76207;39.772;2.706;2024-02-26T07:39:19;99978.58;;;16.54;62.20
85764;BME280;76207;39.772;2.706;2024-02-26T07:41:44;99976.30;;;16.52;62.23
85764;BME280;76207;39.772;2.706;2024-02-26T07:44:13;99964.88;;;16.50;62.29
85764;BME280;76207;39.772;2.706;2024-02-26T07:46:39;99951.90;;;16.49;63.02
85764;BME280;76207;39.772;2.706;2024-02-26T07:49:04;99945.28;;;16.45;64.25
85764;BME280;76207;39.772;2.706;2024-02-26T07:51:30;99959.70;;;16.39;64.39
85764;BME280;76207;39.772;2.706;2024-02-26T07:53:55;99962.90;;;16.34;64.55
85764;BME280;76207;39.772;2.706;2024-02-26T07:56:21;99954.45;;;16.34;64.95
85764;BME280;76207;39.772;2.706;2024-02-26T07:58:46;99954.64;;;16.34;64.57
85764;BME280;76207;39.772;2.706;2024-02-26T08:01:15;99964.81;;;16.34;64.79
85764;BME280;76207;39.772;2.706;2024-02-26T08:03:40;99977.08;;;16.34;65.00
85764;BME280;76207;39.772;2.706;2024-02-26T08:06:08;99968.59;;;16.34;65.60
85764;BME280;76207;39.772;2.706;2024-02-26T08:08:33;99963.94;;;16.34;65.75
85764;BME280;76207;39.772;2.706;2024-02-26T08:10:59;99960.81;;;16.33;66.12
85764;BME280;76207;39.772;2.706;2024-02-26T08:13:25;99963.04;;;16.31;66.04
85764;BME280;76207;39.772;2.706;2024-02-26T08:15:51;99970.80;;;16.31;66.00
85764;BME280;76207;39.772;2.706;2024-02-26T08:18:17;99970.09;;;16.30;66.04
85764;BME280;76207;39.772;2.706;2024-02-26T08:20:42;99965.54;;;16.26;65.69
85764;BME280;76207;39.772;2.706;2024-02-26T08:23:08;99968.65;;;16.26;65.51
85764;BME280;76207;39.772;2.706;2024-02-26T08:25:34;99968.67;;;16.28;65.49
85764;BME280;76207;39.772;2.706;2024-02-26T08:27:59;99969.58;;;16.30;65.91
85764;BME280;76207;39.772;2.706;2024-02-26T08:30:25;99971.91;;;16.36;65.84
85764;BME280;76207;39.772;2.706;2024-02-26T08:32:50;99971.55;;;16.35;66.08
85764;BME280;76207;39.772;2.706;2024-02-26T08:35:16;99978.64;;;16.36;66.02
85764;BME280;76207;39.772;2.706;2024-02-26T08:37:44;99977.00;;;16.30;66.02
85764;BME280;76207;39.772;2.706;2024-02-26T08:40:11;99979.55;;;16.28;66.34
85764;BME280;76207;39.772;2.706;2024-02-26T08:42:37;99978.50;;;16.27;67.68
85764;BME280;76207;39.772;2.706;2024-02-26T08:45:03;99981.43;;;16.26;67.00
85764;BME280;76207;39.772;2.706;2024-02-26T08:47:28;99982.70;;;16.31;67.27
85764;BME280;76207;39.772;2.706;2024-02-26T08:49:54;99982.02;;;16.32;68.46
85764;BME280;76207;39.772;2.706;2024-02-26T08:52:20;99985.82;;;16.32;67.82
85764;BME280;76207;39.772;2.706;2024-02-26T08:54:47;99981.03;;;16.34;67.06
85764;BME280;76207;39.772;2.706;2024-02-26T08:57:13;99971.42;;;16.39;66.99
85764;BME280;76207;39.772;2.706;2024-02-26T08:59:39;99961.66;;;16.43;67.50
85764;BME280;76207;39.772;2.706;2024-02-26T09:02:04;99948.75;;;16.46;67.55
85764;BME280;76207;39.772;2.706;2024-02-26T09:04:30;99941.20;;;16.49;67.55
85764;BME280;76207;39.772;2.706;2024-02-26T09:06:55;99940.21;;;16.52;67.57
85764;BME280;76207;39.772;2.706;2024-02-26T09:09:21;99943.13;;;16.50;66.55
85764;BME280;76207;39.772;2.706;2024-02-26T09:11:48;99940.17;;;16.50;66.64
85764;BME280;76207;39.772;2.706;2024-02-26T09:14:18;99949.50;;;16.50;66.71
85764;BME280;76207;39.772;2.706;2024-02-26T09:16:43;99942.36;;;16.46;66.28
85764;BME280;76207;39.772;2.706;2024-02-26T09:19:09;99947.70;;;16.45;66.37
85764;BME280;76207;39.772;2.706;2024-02-26T09:21:34;99949.94;;;16.45;66.87
85764;BME280;76207;39.772;2.706;2024-02-26T09:24:00;99956.98;;;16.42;65.76
85764;BME280;76207;39.772;2.706;2024-02-26T09:26:25;99959.37;;;16.41;66.03
85764;BME280;76207;39.772;2.706;2024-02-26T09:28:51;99954.54;;;16.41;66.81
85764;BME280;76207;39.772;2.706;2024-02-26T09:31:21;99956.29;;;16.42;67.31
85764;BME280;76207;39.772;2.706;2024-02-26T09:33:46;99964.09;;;16.43;67.13
85764;BME280;76207;39.772;2.706;2024-02-26T09:36:12;99968.11;;;16.47;67.53
85764;BME280;76207;39.772;2.706;2024-02-26T09:38:37;99958.45;;;16.49;67.29
85764;BME280;76207;39.772;2.706;2024-02-26T09:41:06;99957.59;;;16.48;66.55
85764;BME280;76207;39.772;2.706;2024-02-26T09:43:35;99959.67;;;16.50;66.86
85764;BME280;76207;39.772;2.706;2024-02-26T09:46:02;99958.38;;;16.54;67.29
85764;BME280;76207;39.772;2.706;2024-02-26T09:48:29;99957.21;;;16.57;67.58
85764;BME280;76207;39.772;2.706;2024-02-26T09:50:55;99952.84;;;16.66;67.42
85764;BME280;76207;39.772;2.706;2024-02-26T09:53:22;99949.98;;;16.71;67.85
85764;BME280;76207;39.772;2.706;2024-02-26T09:55:48;99943.52;;;16.76;67.97
85764;BME280;76207;39.772;2.706;2024-02-26T09:58:14;99935.60;;;16.79;68.02
85764;BME280;76207;39.772;2.706;2024-02-26T10:00:47;99933.59;;;16.83;68.10
85764;BME280;76207;39.772;2.706;2024-02-26T10:03:15;99934.64;;;16.84;68.05
85764;BME280;76207;39.772;2.706;2024-02-26T10:05:41;99944.33;;;16.85;67.83
85764;BME280;76207;39.772;2.706;2024-02-26T10:08:09;99943.29;;;16.85;67.73
85764;BME280;76207;39.772;2.706;2024-02-26T10:10:36;99938.62;;;16.85;68.44
85764;BME280;76207;39.772;2.706;2024-02-26T10:13:04;99933.59;;;16.83;68.71
85764;BME280;76207;39.772;2.706;2024-02-26T10:15:36;99938.05;;;16.81;68.77
85764;BME280;76207;39.772;2.706;2024-02-26T10:18:06;99946.00;;;16.80;68.68
85764;BME280;76207;39.772;2.706;2024-02-26T10:20:32;99960.61;;;16.76;68.68
85764;BME280;76207;39.772;2.706;2024-02-26T10:22:58;99954.43;;;16.68;68.29
85764;BME280;76207;39.772;2.706;2024-02-26T10:25:23;99944.20;;;16.53;67.01
85764;BME280;76207;39.772;2.706;2024-02-26T10:27:49;99940.30;;;16.35;66.05
85764;BME280;76207;39.772;2.706;2024-02-26T10:30:20;99952.10;;;16.17;65.44
85764;BME280;76207;39.772;2.706;2024-02-26T10:32:47;99962.49;;;15.99;65.30
85764;BME280;76207;39.772;2.706;2024-02-26T10:35:14;99973.05;;;15.81;65.81
85764;BME280;76207;39.772;2.706;2024-02-26T10:37:40;99994.17;;;15.67;65.59
85764;BME280;76207;39.772;2.706;2024-02-26T10:40:10;100022.48;;;15.52;65.24
85764;BME280;76207;39.772;2.706;2024-02-26T10:42:36;100030.44;;;15.36;67.23
85764;BME280;76207;39.772;2.706;2024-02-26T10:45:01;100026.41;;;15.24;68.61
85764;BME280;76207;39.772;2.706;2024-02-26T10:47:28;100022.39;;;15.14;68.68
85764;BME280;76207;39.772;2.706;2024-02-26T10:49:56;100031.10;;;15.02;68.56
85764;BME280;76207;39.772;2.706;2024-02-26T10:52:22;100046.23;;;14.93;69.21
85764;BME280;76207;39.772;2.706;2024-02-26T10:54:53;100049.16;;;14.85;70.22
85764;BME280;76207;39.772;2.706;2024-02-26T10:57:20;100048.45;;;14.85;69.91
85764;BME280;76207;39.772;2.706;2024-02-26T10:59:48;100036.89;;;14.85;70.17
85764;BME280;76207;39.772;2.706;2024-02-26T11:02:14;100042.05;;;14.83;70.00
85764;BME280;76207;39.772;2.706;2024-02-26T11:04:41;100048.82;;;14.85;69.52
85764;BME280;76207;39.772;2.706;2024-02-26T11:07:09;100048.92;;;14.83;68.97
85764;BME280;76207;39.772;2.706;2024-02-26T11:09:35;100045.92;;;14.80;69.32
85764;BME280;76207;39.772;2.706;2024-02-26T11:12:08;100044.31;;;14.77;69.25
85764;BME280;76207;39.772;2.706;2024-02-26T11:14:38;100038.09;;;14.69;68.90
85764;BME280;76207;39.772;2.706;2024-02-26T11:17:07;100027.67;;;14.57;68.18
85764;BME280;76207;39.772;2.706;2024-02-26T11:19:35;100026.83;;;14.45;68.69
85764;BME280;76207;39.772;2.706;2024-02-26T11:22:01;100035.70;;;14.43;69.37
85764;BME280;76207;39.772;2.706;2024-02-26T11:24:28;100031.16;;;14.47;69.62
85764;BME280;76207;39.772;2.706;2024-02-26T11:26:56;100027.66;;;14.44;69.17
85764;BME280;76207;39.772;2.706;2024-02-26T11:29:29;100019.64;;;14.33;68.85
85764;BME280;76207;39.772;2.706;2024-02-26T11:31:59;100016.31;;;14.31;68.50
85764;BME280;76207;39.772;2.706;2024-02-26T11:34:25;100011.15;;;14.24;68.66
85764;BME280;76207;39.772;2.706;2024-02-26T11:36:52;100011.39;;;14.26;69.29
85764;BME280;76207;39.772;2.706;2024-02-26T11:39:21;100007.62;;;14.34;69.50
85764;BME280;76207;39.772;2.706;2024-02-26T11:41:47;100006.98;;;14.43;69.53
85764;BME280;76207;39.772;2.706;2024-02-26T11:44:13;100004.27;;;14.51;69.62
85764;BME280;76207;39.772;2.706;2024-02-26T11:46:40;99983.97;;;14.51;68.67
85764;BME280;76207;39.772;2.706;2024-02-26T11:51:58;100008.66;;;14.54;69.08
85764;BME280;76207;39.772;2.706;2024-02-26T11:57:38;99991.56;;;14.52;67.60
85764;BME280;76207;39.772;2.706;2024-02-26T12:05:14;99951.64;;;14.24;67.96
85764;BME280;76207;39.772;2.706;2024-02-26T12:07:48;99939.73;;;14.22;68.66
85764;BME280;76207;39.772;2.706;2024-02-26T12:10:28;99926.30;;;14.22;69.09
85764;BME280;76207;39.772;2.706;2024-02-26T12:15:32;99920.13;;;14.23;67.88
85764;BME280;76207;39.772;2.706;2024-02-26T12:18:04;99920.76;;;14.20;68.40
85764;BME280;76207;39.772;2.706;2024-02-26T12:20:30;99915.86;;;14.24;68.38
85764;BME280;76207;39.772;2.706;2024-02-26T12:22:56;99920.16;;;14.24;67.24
85764;BME280;76207;39.772;2.706;2024-02-26T12:25:28;99924.09;;;14.23;67.90
85764;BME280;76207;39.772;2.706;2024-02-26T12:27:55;99919.39;;;14.28;67.84
85764;BME280;76207;39.772;2.706;2024-02-26T12:30:21;99919.38;;;14.34;67.79
85764;BME280;76207;39.772;2.706;2024-02-26T12:32:48;99907.74;;;14.38;67.02
85764;BME280;76207;39.772;2.706;2024-02-26T12:35:15;99895.36;;;14.38;67.37
85764;BME280;76207;39.772;2.706;2024-02-26T12:37:41;99892.98;;;14.39;67.63
85764;BME280;76207;39.772;2.706;2024-02-26T12:40:11;99896.94;;;14.39;67.58
85764;BME280;76207;39.772;2.706;2024-02-26T12:42:37;99894.92;;;14.42;68.10
85764;BME280;76207;39.772;2.706;2024-02-26T12:45:08;99880.91;;;14.39;68.18
85764;BME280;76207;39.772;2.706;2024-02-26T12:47:36;99876.45;;;14.39;68.58
85764;BME280;76207;39.772;2.706;2024-02-26T12:50:03;99874.19;;;14.46;68.90
85764;BME280;76207;39.772;2.706;2024-02-26T12:52:31;99872.99;;;14.53;68.75
85764;BME280;76207;39.772;2.706;2024-02-26T12:54:57;99864.49;;;14.50;67.83
85764;BME280;76207;39.772;2.706;2024-02-26T12:57:23;99864.56;;;14.46;68.11
85764;BME280;76207;39.772;2.706;2024-02-26T12:59:49;99867.31;;;14.46;68.14
85764;BME280;76207;39.772;2.706;2024-02-26T13:02:15;99867.41;;;14.43;68.37
85764;BME280;76207;39.772;2.706;2024-02-26T13:04:41;99867.08;;;14.44;68.24
85764;BME280;76207;39.772;2.706;2024-02-26T13:07:06;99876.95;;;14.46;68.25